Historyczne dane pomiarowe

Dodano dane terminowe – wersja testowa.

Dane z okresu 1951-2019

Wersja bazy: 1.34 [2019-03-16, lista zmian], aktualizacja planowana na 2019-04-15

Dane meteo z obszaru Polski uzyskane na podstawie danych udostępnionych przez Instytut Meteorologii i Gospodarki Wodnej – Państwowy Instytut Badawczy.

 

Wybierz Datę:    

       

TemperaturaWilgotnośćWiatrCiśnienieOpadyŚniegCzas trwania zjawisk
 Stacja t tx tn tng RH VA  wxwx mslp ppp RRR   cm mm wxwxwxwxwxwxwx
1972-05-15 16.6 19.1 11.1--- 5.7 3.0---- 1.5------------
1972-05-16 18.7 22.6 13.2--- 6.3 1.0---- 2.0------------
1972-05-17 17.9 20.8 14.7--- 7.0 2.0---- 0.7------------
1972-05-18 17.5 21.6 11.5--- 5.0 2.0---- 0.0------------
1972-05-19 21.0 25.8 12.0--- 4.7 2.7---- 0.0------------
1972-05-20 15.2 21.8 13.1--- 5.0 6.0---- 6.9------------
1972-05-21 15.4 18.6 9.6--- 4.7 2.3---- 0.0------------
1972-05-22 15.0 19.1 5.7--- 4.7 1.0---- 1.2------------
1972-05-23 16.8 21.8 9.4--- 2.7 2.7---- 0.0------------
1972-05-24 17.8 23.2 9.2--- 2.7 1.0---- 0.0------------
1972-05-25 16.5 18.7 8.8--- 6.3 1.7---- 1.2------------
1972-05-26 16.7 20.0 11.3--- 6.7 4.0---- 2.1------------
1972-05-27 12.7 17.1 12.0--- 6.7 3.3---- 3.2------------
1972-05-28 14.1 16.6 8.8--- 2.3 3.3---- 1.0------------
1972-05-29 13.7 17.2 6.8--- 6.0 3.3---- 0.0------------
1972-05-30 17.4 21.2 9.3--- 4.7 4.3---- 0.0------------
1972-05-31 17.5 21.1 11.8--- 5.0 1.7---- 0.0------------
1972-06-01 15.4 18.1 11.8--- 5.7 1.3---- 3.5------------
1972-06-02 13.8 16.6 10.2--- 6.3 0.0---- 0.6------------
1972-06-03 16.5 20.5 9.0--- 3.0 1.3---- 0.0------------
1972-06-04 19.5 23.1 7.8--- 1.7 3.7---- 0.0------------
1972-06-05 21.8 25.6 10.9--- 2.3 5.0---- 0.0------------
1972-06-06 22.9 28.0 12.1--- 1.0 4.3---- 0.0------------
1972-06-07 23.7 28.4 14.0--- 0.0 1.3---- 0.0------------
1972-06-08 20.9 28.0 15.2--- 2.3 0.7---- 1.8------------
1972-06-09 17.4 20.9 11.9--- 2.3 2.0---- 0.0------------
1972-06-10 20.5 24.5 9.2--- 5.3 2.7---- 0.0------------
1972-06-11 21.5 27.6 14.1--- 4.7 1.3---- 0.0------------
1972-06-12 25.2 30.6 14.3--- 4.3 3.7---- 0.3------------
1972-06-13 24.4 29.1 19.6--- 4.0 4.0---- 0.0------------
226.3 ms

 

Źródłem pochodzenia danych jest Instytut Meteorologii i Gospodarki Wodnej – Państwowy Instytut Badawczy. Dane Instytutu Meteorologii i Gospodarki Wodnej – Państwowego Instytutu Badawczego zostały przetworzone.

Dane źródłowe można odnaleźć na stronie https://dane.imgw.pl